Time;durP1;ratioP1;P1;durP2;ratioP2;P2;SDS_P1;SDS_P2;PMS_P1;PMS_P2;Temp;Humidity;BMP_temperature;BMP_pressure;BME280_temperature;BME280_humidity;BME280_pressure;Samples;Min_cycle;Max_cycle;Signal;HPM_P1;HPM_P2
2021/07/15 00:00:25;;;;;;;22.52;10.48;;;;;;;;;;5053262;28;20049;-44
2021/07/15 00:02:51;;;;;;;22.25;8.48;;;;;;;;;;5053436;28;20087;-44
2021/07/15 00:05:18;;;;;;;26.73;12.88;;;;;;;;;;5053831;28;20017;-44
2021/07/15 00:07:44;;;;;;;24.90;11.65;;;;;;;;;;5053851;28;20515;-44
2021/07/15 00:10:19;;;;;;;21.92;13.48;;;;;;;;;;5054030;28;20064;-44
2021/07/15 00:12:45;;;;;;;25.25;16.88;;;;;;;;;;5053664;28;20066;-44
2021/07/15 00:15:12;;;;;;;24.77;18.90;;;;;;;;;;5053319;28;20060;-44
2021/07/15 00:17:38;;;;;;;19.33;12.30;;;;;;;;;;5053554;28;20025;-44
2021/07/15 00:20:09;;;;;;;20.58;13.40;;;;;;;;;;5053701;28;20021;-44
2021/07/15 00:22:35;;;;;;;23.15;10.88;;;;;;;;;;5053724;28;20028;-44
2021/07/15 00:25:04;;;;;;;23.58;14.35;;;;;;;;;;5053563;28;20064;-43
2021/07/15 00:27:30;;;;;;;19.08;10.98;;;;;;;;;;5053489;28;20040;-44
2021/07/15 00:29:56;;;;;;;20.75;12.25;;;;;;;;;;5053386;28;20159;-44
2021/07/15 00:32:22;;;;;;;16.02;9.95;;;;;;;;;;5053593;28;20021;-43
2021/07/15 00:34:48;;;;;;;20.20;9.93;;;;;;;;;;5053519;28;20028;-44
2021/07/15 00:37:14;;;;;;;19.17;9.40;;;;;;;;;;5053438;28;20021;-45
2021/07/15 00:39:40;;;;;;;17.23;8.88;;;;;;;;;;5053474;28;20529;-44
2021/07/15 00:42:06;;;;;;;21.67;9.15;;;;;;;;;;5053347;28;20028;-44
2021/07/15 00:44:32;;;;;;;21.90;10.27;;;;;;;;;;5052541;28;20060;-44
2021/07/15 00:46:58;;;;;;;22.05;9.55;;;;;;;;;;5053317;28;20469;-44
2021/07/15 00:49:24;;;;;;;21.58;10.13;;;;;;;;;;5053302;28;20025;-45
2021/07/15 00:51:50;;;;;;;18.23;9.93;;;;;;;;;;5053427;28;20017;-45
2021/07/15 00:54:16;;;;;;;20.70;11.80;;;;;;;;;;5053148;28;20025;-45
2021/07/15 00:56:43;;;;;;;24.52;11.25;;;;;;;;;;5053233;28;20013;-46
2021/07/15 00:59:09;;;;;;;21.73;11.05;;;;;;;;;;5053240;28;20036;-45
2021/07/15 01:01:35;;;;;;;28.30;18.48;;;;;;;;;;5053256;28;20056;-45
2021/07/15 01:04:01;;;;;;;17.23;10.25;;;;;;;;;;5052822;28;20028;-43
2021/07/15 01:06:27;;;;;;;22.15;10.90;;;;;;;;;;5052846;28;20094;-41
2021/07/15 01:08:53;;;;;;;28.67;21.10;;;;;;;;;;5053014;28;20040;-44
2021/07/15 01:11:31;;;;;;;19.95;14.45;;;;;;;;;;5052933;28;20025;-44
2021/07/15 01:14:17;;;;;;;27.85;14.13;;;;;;;;;;5052704;28;20445;-44
2021/07/15 01:16:51;;;;;;;20.23;11.95;;;;;;;;;;5048852;28;20056;-43
2021/07/15 01:19:35;;;;;;;14.35;10.73;;;;;;;;;;5052828;28;20029;-44
2021/07/15 01:22:20;;;;;;;23.38;9.40;;;;;;;;;;5053070;28;20174;-44
2021/07/15 01:24:55;;;;;;;15.00;8.27;;;;;;;;;;5052938;28;20021;-43
2021/07/15 01:27:40;;;;;;;18.80;9.48;;;;;;;;;;5052847;28;20118;-44
2021/07/15 01:30:08;;;;;;;19.58;10.27;;;;;;;;;;5053008;28;20053;-44
2021/07/15 01:32:53;;;;;;;20.27;9.48;;;;;;;;;;5053314;28;20033;-44
2021/07/15 01:35:24;;;;;;;43.95;28.55;;;;;;;;;;5051466;28;20393;-43
2021/07/15 01:37:51;;;;;;;24.63;14.10;;;;;;;;;;5053054;28;20017;-43
2021/07/15 01:40:19;;;;;;;22.15;12.25;;;;;;;;;;5052849;28;20033;-43
2021/07/15 01:42:47;;;;;;;22.70;13.07;;;;;;;;;;5052800;28;20029;-43
2021/07/15 01:45:13;;;;;;;18.27;10.73;;;;;;;;;;5052552;28;20043;-43
2021/07/15 01:47:40;;;;;;;19.38;12.85;;;;;;;;;;5052664;28;20043;-43
2021/07/15 01:50:06;;;;;;;29.92;15.63;;;;;;;;;;5052821;28;20025;-43
2021/07/15 01:52:33;;;;;;;43.38;31.08;;;;;;;;;;5053185;28;20128;-44
2021/07/15 01:54:59;;;;;;;22.80;10.80;;;;;;;;;;5053023;28;20025;-44
2021/07/15 01:57:25;;;;;;;18.52;10.13;;;;;;;;;;5056345;28;20025;-43
2021/07/15 01:59:53;;;;;;;22.42;9.85;;;;;;;;;;5056345;28;20021;-43
2021/07/15 02:02:20;;;;;;;22.05;8.88;;;;;;;;;;5054640;28;20054;-45
2021/07/15 02:04:46;;;;;;;23.90;9.10;;;;;;;;;;5056076;28;20025;-44
2021/07/15 02:07:13;;;;;;;14.02;8.80;;;;;;;;;;5056282;28;20036;-45
2021/07/15 02:09:39;;;;;;;17.45;8.75;;;;;;;;;;5056124;28;20029;-44
2021/07/15 02:12:06;;;;;;;17.98;9.68;;;;;;;;;;5056052;28;20046;-44
2021/07/15 02:14:33;;;;;;;14.75;8.80;;;;;;;;;;5055800;28;20097;-43
2021/07/15 02:17:00;;;;;;;17.63;9.05;;;;;;;;;;5055958;28;20017;-44
2021/07/15 02:19:26;;;;;;;16.05;8.27;;;;;;;;;;5056048;28;20491;-44
2021/07/15 02:21:53;;;;;;;17.50;8.57;;;;;;;;;;5055952;28;20500;-45
2021/07/15 02:24:20;;;;;;;17.02;9.35;;;;;;;;;;5055983;28;20439;-45
2021/07/15 02:26:47;;;;;;;19.45;10.95;;;;;;;;;;5055843;28;20071;-45
2021/07/15 02:29:14;;;;;;;32.40;19.80;;;;;;;;;;5055680;28;20025;-45
2021/07/15 02:31:42;;;;;;;23.98;14.45;;;;;;;;;;5055569;28;20043;-45
2021/07/15 02:34:17;;;;;;;25.98;12.80;;;;;;;;;;5054032;28;20043;-43
2021/07/15 02:36:44;;;;;;;20.60;11.15;;;;;;;;;;5055767;28;20111;-46
2021/07/15 02:39:11;;;;;;;20.13;10.32;;;;;;;;;;5055636;28;20392;-45
2021/07/15 02:41:38;;;;;;;23.27;10.05;;;;;;;;;;5055436;28;20112;-42
2021/07/15 02:44:04;;;;;;;16.17;7.57;;;;;;;;;;5055150;28;20385;-46
2021/07/15 02:46:30;;;;;;;13.02;6.45;;;;;;;;;;5055328;28;20036;-46
2021/07/15 02:48:57;;;;;;;14.30;6.88;;;;;;;;;;5055244;28;20032;-45
2021/07/15 02:51:24;;;;;;;18.58;7.05;;;;;;;;;;5055463;28;20017;-46
2021/07/15 02:53:50;;;;;;;14.52;7.60;;;;;;;;;;5055414;28;20029;-45
2021/07/15 02:56:35;;;;;;;16.23;7.57;;;;;;;;;;5055425;28;20017;-45
2021/07/15 02:59:03;;;;;;;20.40;9.18;;;;;;;;;;5055235;28;20025;-45
2021/07/15 03:01:34;;;;;;;16.52;9.50;;;;;;;;;;5055000;28;20032;-45
2021/07/15 03:04:00;;;;;;;;;;;;;;;;;;5055623;28;20032;-43
2021/07/15 03:06:28;;;;;;;19.70;9.02;;;;;;;;;;5054784;28;20273;-42
2021/07/15 03:08:56;;;;;;;19.60;8.40;;;;;;;;;;5054603;28;20469;-46
2021/07/15 03:11:23;;;;;;;13.65;6.47;;;;;;;;;;5055089;28;20044;-45
2021/07/15 03:13:50;;;;;;;9.13;6.00;;;;;;;;;;5054769;28;20427;-44
2021/07/15 03:16:17;;;;;;;13.02;7.97;;;;;;;;;;5054737;28;20056;-44
2021/07/15 03:18:46;;;;;;;14.73;7.40;;;;;;;;;;5054873;28;20427;-45
2021/07/15 03:21:13;;;;;;;9.68;5.25;;;;;;;;;;5054886;28;20030;-44
2021/07/15 03:23:40;;;;;;;11.43;5.30;;;;;;;;;;5054727;28;20514;-44
2021/07/15 03:26:08;;;;;;;10.38;4.78;;;;;;;;;;5054589;28;20028;-45
2021/07/15 03:28:36;;;;;;;17.40;4.93;;;;;;;;;;5054570;28;20041;-45
2021/07/15 03:31:06;;;;;;;10.77;4.85;;;;;;;;;;5054832;28;20021;-46
2021/07/15 03:33:32;;;;;;;13.90;4.78;;;;;;;;;;5054699;28;20024;-45
2021/07/15 03:35:59;;;;;;;11.45;4.00;;;;;;;;;;5055065;28;20029;-45
2021/07/15 03:38:25;;;;;;;8.15;4.50;;;;;;;;;;5054793;28;20036;-45
2021/07/15 03:40:52;;;;;;;9.30;3.92;;;;;;;;;;5054470;28;20100;-45
2021/07/15 03:43:18;;;;;;;8.45;3.53;;;;;;;;;;5054425;28;20025;-45
2021/07/15 03:45:49;;;;;;;11.00;3.88;;;;;;;;;;5054486;28;20523;-43
2021/07/15 03:48:16;;;;;;;9.07;3.35;;;;;;;;;;5054295;28;20075;-45
2021/07/15 03:50:42;;;;;;;11.15;3.08;;;;;;;;;;5054523;28;20059;-44
2021/07/15 03:53:09;;;;;;;10.43;2.90;;;;;;;;;;5054308;28;20099;-44
2021/07/15 03:55:36;;;;;;;21.35;12.20;;;;;;;;;;5054385;28;20024;-45
2021/07/15 03:58:05;;;;;;;12.60;5.05;;;;;;;;;;5054330;28;20431;-45
2021/07/15 04:00:31;;;;;;;12.77;3.00;;;;;;;;;;5054173;28;20029;-45
2021/07/15 04:02:59;;;;;;;4.18;2.30;;;;;;;;;;5054041;28;20025;-44
2021/07/15 04:05:26;;;;;;;13.00;2.38;;;;;;;;;;5054030;28;20020;-45
2021/07/15 04:07:56;;;;;;;4.72;2.20;;;;;;;;;;5054219;28;20033;-45
2021/07/15 04:10:23;;;;;;;5.18;2.10;;;;;;;;;;5054023;28;20032;-45
2021/07/15 04:12:50;;;;;;;5.15;2.05;;;;;;;;;;5053904;28;20028;-45
2021/07/15 04:15:20;;;;;;;5.78;1.85;;;;;;;;;;5053595;28;20040;-45
2021/07/15 04:17:50;;;;;;;11.05;2.15;;;;;;;;;;5053666;28;20108;-44
2021/07/15 04:20:19;;;;;;;3.70;1.90;;;;;;;;;;5053838;28;20029;-44
2021/07/15 04:22:46;;;;;;;9.02;1.95;;;;;;;;;;5053523;28;20105;-44
2021/07/15 04:25:14;;;;;;;11.13;2.72;;;;;;;;;;5053886;28;20032;-45
2021/07/15 04:27:41;;;;;;;6.53;2.22;;;;;;;;;;5053439;28;20512;-45
2021/07/15 04:30:09;;;;;;;8.93;1.92;;;;;;;;;;5053650;28;20032;-45
2021/07/15 04:32:53;;;;;;;5.97;2.40;;;;;;;;;;5053626;28;20033;-44
2021/07/15 04:35:20;;;;;;;9.55;1.65;;;;;;;;;;5053806;28;20078;-44
2021/07/15 04:37:47;;;;;;;11.45;2.17;;;;;;;;;;5053526;28;20021;-44
2021/07/15 04:40:16;;;;;;;7.35;2.17;;;;;;;;;;5053581;28;20473;-44
2021/07/15 04:42:43;;;;;;;7.47;2.00;;;;;;;;;;5053534;28;20044;-44
2021/07/15 04:45:12;;;;;;;9.10;2.15;;;;;;;;;;5053256;28;20040;-44
2021/07/15 04:47:43;;;;;;;6.38;2.55;;;;;;;;;;5053294;28;20045;-42
2021/07/15 04:50:09;;;;;;;;;;;;;;;;;;5053721;28;20029;-42
2021/07/15 04:52:36;;;;;;;4.40;2.00;;;;;;;;;;5053253;28;19904;-42
2021/07/15 04:55:02;;;;;;;5.15;2.03;;;;;;;;;;5053283;28;20032;-45
2021/07/15 04:57:29;;;;;;;5.25;2.03;;;;;;;;;;5053129;28;20029;-44
2021/07/15 04:59:56;;;;;;;7.30;2.13;;;;;;;;;;5053254;28;20056;-44
2021/07/15 05:02:25;;;;;;;6.55;2.15;;;;;;;;;;5053198;28;20036;-43
2021/07/15 05:04:51;;;;;;;8.40;4.07;;;;;;;;;;5051526;28;20411;-44
2021/07/15 05:07:17;;;;;;;12.45;7.35;;;;;;;;;;5053268;28;20033;-44
2021/07/15 05:09:43;;;;;;;14.07;6.55;;;;;;;;;;5053125;28;20028;-45
2021/07/15 05:12:09;;;;;;;12.48;5.60;;;;;;;;;;5053129;28;20032;-44
2021/07/15 05:14:41;;;;;;;10.32;3.50;;;;;;;;;;5052874;28;20500;-44
2021/07/15 05:17:11;;;;;;;7.18;2.70;;;;;;;;;;5053017;28;20029;-44
2021/07/15 05:19:37;;;;;;;56.13;3.78;;;;;;;;;;5053135;28;20021;-44
2021/07/15 05:22:04;;;;;;;33.05;3.70;;;;;;;;;;5053220;28;20044;-45
2021/07/15 05:24:30;;;;;;;16.80;9.30;;;;;;;;;;5053076;28;20108;-45
2021/07/15 05:26:56;;;;;;;27.75;8.90;;;;;;;;;;5052858;28;20078;-45
2021/07/15 05:29:22;;;;;;;19.60;6.55;;;;;;;;;;5053084;28;20039;-45
2021/07/15 05:31:48;;;;;;;19.63;8.85;;;;;;;;;;5055002;28;20032;-49
2021/07/15 05:34:17;;;;;;;9.13;4.75;;;;;;;;;;5056751;28;20120;-45
2021/07/15 05:36:44;;;;;;;15.52;4.97;;;;;;;;;;5057054;28;20120;-45
2021/07/15 05:39:10;;;;;;;5.20;2.15;;;;;;;;;;5057013;28;20025;-50
2021/07/15 05:41:37;;;;;;;8.23;2.10;;;;;;;;;;5056883;28;20034;-44
2021/07/15 05:44:03;;;;;;;10.60;4.18;;;;;;;;;;5056817;28;20225;-44
2021/07/15 05:46:29;;;;;;;8.98;3.22;;;;;;;;;;5056766;28;20029;-43
2021/07/15 05:48:55;;;;;;;10.20;4.03;;;;;;;;;;5056326;28;20048;-44
2021/07/15 05:51:21;;;;;;;34.67;22.77;;;;;;;;;;5056638;28;20120;-45
2021/07/15 05:53:47;;;;;;;34.47;22.13;;;;;;;;;;5056583;28;20024;-44
2021/07/15 05:56:13;;;;;;;13.57;6.60;;;;;;;;;;5056697;28;20377;-43
2021/07/15 05:58:39;;;;;;;7.70;5.13;;;;;;;;;;5056583;28;20061;-44
2021/07/15 06:01:05;;;;;;;12.02;4.43;;;;;;;;;;5056253;28;20035;-45
2021/07/15 06:03:31;;;;;;;6.35;2.75;;;;;;;;;;5056136;28;20431;-43
2021/07/15 06:05:58;;;;;;;6.82;1.90;;;;;;;;;;5056216;28;20416;-43
2021/07/15 06:08:24;;;;;;;4.20;2.55;;;;;;;;;;5056212;28;20460;-44
2021/07/15 06:10:50;;;;;;;9.63;2.60;;;;;;;;;;5056198;28;20118;-44
2021/07/15 06:13:16;;;;;;;4.15;2.35;;;;;;;;;;5056313;28;20033;-43
2021/07/15 06:15:42;;;;;;;6.43;2.20;;;;;;;;;;5055938;28;20132;-42
2021/07/15 06:18:09;;;;;;;6.57;3.53;;;;;;;;;;5056014;28;20104;-42
2021/07/15 06:20:35;;;;;;;10.27;3.95;;;;;;;;;;5055971;28;20035;-43
2021/07/15 06:23:01;;;;;;;8.35;2.45;;;;;;;;;;5056179;28;20025;-42
2021/07/15 06:25:27;;;;;;;6.85;2.50;;;;;;;;;;5055995;28;20028;-42
2021/07/15 06:27:54;;;;;;;4.78;1.48;;;;;;;;;;5055817;28;20033;-43
2021/07/15 06:30:22;;;;;;;9.13;4.15;;;;;;;;;;5055687;28;20598;-43
2021/07/15 06:32:48;;;;;;;10.38;7.80;;;;;;;;;;5055745;28;20108;-45
2021/07/15 06:35:16;;;;;;;15.85;8.90;;;;;;;;;;5055810;28;20381;-43
2021/07/15 06:37:44;;;;;;;11.98;8.05;;;;;;;;;;5055910;28;20060;-43
2021/07/15 06:40:11;;;;;;;8.32;4.90;;;;;;;;;;5055646;28;20100;-42
2021/07/15 06:42:38;;;;;;;5.38;2.00;;;;;;;;;;5054291;28;20064;-43
2021/07/15 06:45:05;;;;;;;4.80;1.45;;;;;;;;;;5055513;28;20025;-42
2021/07/15 06:47:31;;;;;;;2.17;1.25;;;;;;;;;;5055374;28;20517;-42
2021/07/15 06:49:58;;;;;;;4.43;1.35;;;;;;;;;;5055212;28;20473;-43
2021/07/15 06:52:27;;;;;;;2.75;1.50;;;;;;;;;;5055442;28;20036;-43
2021/07/15 06:54:54;;;;;;;6.00;1.90;;;;;;;;;;5055381;28;20021;-43
2021/07/15 06:57:20;;;;;;;3.13;1.27;;;;;;;;;;5055334;28;20025;-42
2021/07/15 06:59:46;;;;;;;1.75;1.13;;;;;;;;;;5055229;28;20021;-44
2021/07/15 07:02:12;;;;;;;3.30;1.35;;;;;;;;;;5055127;28;20025;-43
2021/07/15 07:04:38;;;;;;;4.32;1.63;;;;;;;;;;5055057;28;20045;-43
2021/07/15 07:07:04;;;;;;;6.13;1.50;;;;;;;;;;5055357;28;20027;-43
2021/07/15 07:09:30;;;;;;;7.70;2.33;;;;;;;;;;5055069;28;20053;-43
2021/07/15 07:11:56;;;;;;;7.47;1.50;;;;;;;;;;5055047;28;20021;-43
2021/07/15 07:14:23;;;;;;;3.13;1.70;;;;;;;;;;5054723;28;20024;-43
2021/07/15 07:16:49;;;;;;;10.75;2.28;;;;;;;;;;5054877;28;20037;-43
2021/07/15 07:19:15;;;;;;;34.58;2.63;;;;;;;;;;5054732;28;20104;-42
2021/07/15 07:21:41;;;;;;;17.50;9.65;;;;;;;;;;5054133;28;20021;-42
2021/07/15 07:24:07;;;;;;;10.75;5.07;;;;;;;;;;5054279;28;20457;-42
2021/07/15 07:26:33;;;;;;;19.60;11.32;;;;;;;;;;5054246;28;20021;-42
2021/07/15 07:28:59;;;;;;;9.52;3.88;;;;;;;;;;5054021;28;20057;-42
2021/07/15 07:31:27;;;;;;;20.48;11.57;;;;;;;;;;5054677;28;20020;-41
2021/07/15 07:33:53;;;;;;;7.85;2.45;;;;;;;;;;5053941;28;20021;-42
2021/07/15 07:36:19;;;;;;;3.78;1.30;;;;;;;;;;5054164;28;20029;-42
2021/07/15 07:38:45;;;;;;;7.13;2.92;;;;;;;;;;5054021;28;20044;-42
2021/07/15 07:41:11;;;;;;;9.48;5.38;;;;;;;;;;5053898;28;20025;-42
2021/07/15 07:43:37;;;;;;;6.85;2.63;;;;;;;;;;5053850;28;20021;-42
2021/07/15 07:46:04;;;;;;;4.78;1.70;;;;;;;;;;5053802;28;20032;-42
2021/07/15 07:48:30;;;;;;;4.70;2.40;;;;;;;;;;5053676;28;20037;-42
2021/07/15 07:51:00;;;;;;;7.82;2.60;;;;;;;;;;5053541;28;20050;-42
2021/07/15 07:53:26;;;;;;;4.68;2.53;;;;;;;;;;5053471;28;20033;-42
2021/07/15 07:55:53;;;;;;;6.53;1.88;;;;;;;;;;5053646;28;20017;-42
2021/07/15 07:58:20;;;;;;;4.28;2.08;;;;;;;;;;5053665;28;20028;-42
2021/07/15 08:00:46;;;;;;;3.85;1.20;;;;;;;;;;5053594;28;20100;-42
2021/07/15 08:03:12;;;;;;;8.30;2.70;;;;;;;;;;5053593;28;20503;-41
2021/07/15 08:05:40;;;;;;;5.38;3.08;;;;;;;;;;5053312;28;20111;-42
2021/07/15 08:08:07;;;;;;;4.20;2.83;;;;;;;;;;5053402;28;20031;-42
2021/07/15 08:10:33;;;;;;;6.47;3.53;;;;;;;;;;5052062;28;20444;-42
2021/07/15 08:12:59;;;;;;;7.80;3.47;;;;;;;;;;5053221;28;20538;-43
2021/07/15 08:15:25;;;;;;;5.85;3.13;;;;;;;;;;5052969;28;20052;-43
2021/07/15 08:17:51;;;;;;;5.00;1.60;;;;;;;;;;5051883;28;20491;-43
2021/07/15 08:20:17;;;;;;;4.05;1.63;;;;;;;;;;5053119;28;20104;-43
2021/07/15 08:22:44;;;;;;;7.85;1.38;;;;;;;;;;5053172;28;20024;-48
2021/07/15 08:25:10;;;;;;;3.28;1.30;;;;;;;;;;5053331;28;20040;-44
2021/07/15 08:27:37;;;;;;;7.05;3.33;;;;;;;;;;5053057;28;20032;-43
2021/07/15 08:30:04;;;;;;;4.75;2.47;;;;;;;;;;5053160;28;20473;-43
2021/07/15 08:32:30;;;;;;;6.65;2.13;;;;;;;;;;5053063;28;20385;-43
2021/07/15 08:34:56;;;;;;;2.88;1.52;;;;;;;;;;5052823;28;20092;-43
2021/07/15 08:37:22;;;;;;;10.15;4.70;;;;;;;;;;5053273;28;20032;-44
2021/07/15 08:39:48;;;;;;;5.22;2.95;;;;;;;;;;5052925;28;20469;-43
2021/07/15 08:42:15;;;;;;;3.72;1.40;;;;;;;;;;5052587;28;20021;-43
2021/07/15 08:44:41;;;;;;;4.63;1.20;;;;;;;;;;5053076;28;20032;-42
2021/07/15 08:47:08;;;;;;;6.43;1.30;;;;;;;;;;5051808;28;20029;-42
2021/07/15 08:49:37;;;;;;;4.40;2.40;;;;;;;;;;5053143;28;20029;-41
2021/07/15 08:52:03;;;;;;;53.90;31.58;;;;;;;;;;5053113;28;20040;-43
2021/07/15 08:54:55;;;;;;;106.97;72.82;;;;;;;;;;5053094;28;20109;-43
2021/07/15 08:57:16;;;;;;;13.85;10.20;;;;;;;;;;5032960;28;20132;-43
2021/07/15 08:59:42;;;;;;;25.70;15.20;;;;;;;;;;5022033;28;20053;-43
2021/07/15 09:02:14;;;;;;;12.18;5.40;;;;;;;;;;5021042;28;20029;-43
2021/07/15 09:04:40;;;;;;;12.25;9.95;;;;;;;;;;5021006;28;20510;-44
2021/07/15 09:07:06;;;;;;;10.77;5.53;;;;;;;;;;5024787;28;20033;-43
2021/07/15 09:09:32;;;;;;;8.80;4.68;;;;;;;;;;5024897;28;20069;-43
2021/07/15 09:11:58;;;;;;;13.07;6.20;;;;;;;;;;5025641;28;20045;-42
2021/07/15 09:14:24;;;;;;;8.00;5.75;;;;;;;;;;5025003;28;20095;-43
2021/07/15 09:16:51;;;;;;;3.65;1.60;;;;;;;;;;5024990;28;20033;-43
2021/07/15 09:19:18;;;;;;;7.18;4.05;;;;;;;;;;5024901;28;20021;-43
2021/07/15 09:21:45;;;;;;;8.88;5.20;;;;;;;;;;5026134;28;20033;-42
2021/07/15 09:24:34;;;;;;;11.82;3.83;;;;;;;;;;5025450;28;20837;-42
2021/07/15 09:27:09;;;;;;;5.45;1.90;;;;;;;;;;5024959;28;20025;-42
2021/07/15 09:29:35;;;;;;;5.40;1.77;;;;;;;;;;5025404;28;20052;-43
2021/07/15 09:32:02;;;;;;;11.23;1.85;;;;;;;;;;5025861;28;20014;-42
2021/07/15 09:34:29;;;;;;;5.50;1.10;;;;;;;;;;5024944;28;20334;-43
2021/07/15 09:36:56;;;;;;;6.97;2.97;;;;;;;;;;5024848;28;20021;-44
2021/07/15 09:39:23;;;;;;;4.15;2.05;;;;;;;;;;5025626;28;20036;-42
2021/07/15 09:42:15;;;;;;;4.57;1.60;;;;;;;;;;5025867;28;20037;-43
2021/07/15 09:44:43;;;;;;;4.82;1.05;;;;;;;;;;5024531;28;20098;-42
2021/07/15 09:47:28;;;;;;;3.90;1.95;;;;;;;;;;5027595;28;20494;-41
2021/07/15 09:49:54;;;;;;;13.30;3.75;;;;;;;;;;5024642;28;20446;-43
2021/07/15 09:52:23;;;;;;;47.20;34.47;;;;;;;;;;5024452;28;20072;-42
2021/07/15 09:54:49;;;;;;;35.38;28.30;;;;;;;;;;5024998;28;20021;-43
2021/07/15 09:57:28;;;;;;;3.88;2.65;;;;;;;;;;5027538;28;20132;-43
2021/07/15 09:59:58;;;;;;;34.40;17.83;;;;;;;;;;5024319;28;20029;-43
2021/07/15 10:02:31;;;;;;;15.23;8.13;;;;;;;;;;5025402;28;20021;-42
2021/07/15 10:04:57;;;;;;;40.33;32.63;;;;;;;;;;5024208;28;20141;-43
2021/07/15 10:07:24;;;;;;;47.22;34.65;;;;;;;;;;5023959;28;20033;-43
2021/07/15 10:09:50;;;;;;;20.95;16.20;;;;;;;;;;5028189;28;20037;-43
2021/07/15 10:12:25;;;;;;;8.43;5.03;;;;;;;;;;5029403;28;20036;-42
2021/07/15 10:14:52;;;;;;;18.10;8.48;;;;;;;;;;5028961;28;20194;-43
2021/07/15 10:17:37;;;;;;;23.10;10.80;;;;;;;;;;5030396;28;20029;-43
2021/07/15 10:20:14;;;;;;;27.27;23.27;;;;;;;;;;5030740;28;20513;-42
2021/07/15 10:22:41;;;;;;;13.43;7.72;;;;;;;;;;5028875;28;20055;-43
2021/07/15 10:25:08;;;;;;;5.35;2.00;;;;;;;;;;5024121;28;20334;-43
2021/07/15 10:27:34;;;;;;;8.77;5.70;;;;;;;;;;5023575;28;20035;-43
2021/07/15 10:30:01;;;;;;;3.22;1.85;;;;;;;;;;5024727;28;20840;-43
2021/07/15 10:32:28;;;;;;;9.88;2.60;;;;;;;;;;5025390;28;20026;-43
2021/07/15 10:34:54;;;;;;;7.35;1.02;;;;;;;;;;5023056;28;20032;-43
2021/07/15 10:37:21;;;;;;;2.95;1.15;;;;;;;;;;5023698;28;20048;-43
2021/07/15 10:39:48;;;;;;;4.63;1.73;;;;;;;;;;5023568;28;20021;-43
2021/07/15 10:42:14;;;;;;;7.50;1.77;;;;;;;;;;5024796;28;20087;-42
2021/07/15 10:44:41;;;;;;;3.35;1.40;;;;;;;;;;5023451;28;20033;-42
2021/07/15 10:47:07;;;;;;;8.63;1.42;;;;;;;;;;5022906;28;20064;-43
2021/07/15 10:49:37;;;;;;;3.63;1.35;;;;;;;;;;5023099;28;20040;-43
2021/07/15 10:52:06;;;;;;;5.40;3.20;;;;;;;;;;5023544;28;20063;-43
2021/07/15 10:54:32;;;;;;;8.45;4.57;;;;;;;;;;5023937;28;20025;-43
2021/07/15 10:56:58;;;;;;;10.68;3.95;;;;;;;;;;5024222;28;20639;-44
2021/07/15 10:59:26;;;;;;;4.47;2.85;;;;;;;;;;5023504;28;20035;-43
2021/07/15 11:01:53;;;;;;;18.60;6.00;;;;;;;;;;5023049;28;20404;-43
2021/07/15 11:04:23;;;;;;;7.70;2.88;;;;;;;;;;5022976;28;20552;-43
2021/07/15 11:06:50;;;;;;;4.82;1.73;;;;;;;;;;5023999;28;20033;-42
2021/07/15 11:09:29;;;;;;;30.58;10.23;;;;;;;;;;5023064;28;20143;-44
2021/07/15 11:11:56;;;;;;;47.65;11.70;;;;;;;;;;5022961;28;20504;-43
2021/07/15 11:14:40;;;;;;;15.95;4.80;;;;;;;;;;5034207;28;20029;-43
2021/07/15 11:17:22;;;;;;;9.77;2.45;;;;;;;;;;5038595;28;20112;-43
2021/07/15 11:20:07;;;;;;;8.32;2.72;;;;;;;;;;5054901;28;20025;-44
2021/07/15 11:22:42;;;;;;;4.85;1.88;;;;;;;;;;5055077;28;20067;-44
2021/07/15 11:25:10;;;;;;;4.95;1.42;;;;;;;;;;5054647;28;20032;-44
2021/07/15 11:27:37;;;;;;;6.50;1.55;;;;;;;;;;5054224;28;20029;-44
2021/07/15 11:30:04;;;;;;;4.60;1.30;;;;;;;;;;5054727;28;20029;-44
2021/07/15 11:32:30;;;;;;;5.20;1.73;;;;;;;;;;5055002;28;20447;-44
2021/07/15 11:34:57;;;;;;;5.20;1.30;;;;;;;;;;5054653;28;20504;-43
2021/07/15 11:37:26;;;;;;;5.30;1.13;;;;;;;;;;5054755;28;20358;-44
2021/07/15 11:39:56;;;;;;;9.40;1.35;;;;;;;;;;5054943;28;20029;-44
2021/07/15 11:42:23;;;;;;;4.85;1.33;;;;;;;;;;5054776;28;20099;-44
2021/07/15 11:45:05;;;;;;;3.92;1.75;;;;;;;;;;5054447;28;20080;-44
2021/07/15 11:47:43;;;;;;;3.95;1.30;;;;;;;;;;5054540;28;20109;-44
2021/07/15 11:50:28;;;;;;;6.22;1.35;;;;;;;;;;5054174;28;20108;-43
2021/07/15 11:53:13;;;;;;;3.17;1.05;;;;;;;;;;5054266;28;20028;-43
2021/07/15 11:55:39;;;;;;;4.43;1.15;;;;;;;;;;5054474;28;20024;-44
2021/07/15 11:58:06;;;;;;;5.97;1.20;;;;;;;;;;5054400;28;20056;-44
2021/07/15 12:00:32;;;;;;;4.68;1.33;;;;;;;;;;5054155;28;20021;-44
2021/07/15 12:02:59;;;;;;;5.53;1.08;;;;;;;;;;5054102;28;20408;-44
2021/07/15 12:05:28;;;;;;;2.60;1.00;;;;;;;;;;5053946;28;20029;-43
2021/07/15 12:08:13;;;;;;;4.53;1.50;;;;;;;;;;5054038;28;20093;-44
2021/07/15 12:10:41;;;;;;;5.43;1.55;;;;;;;;;;5054248;28;20021;-44
2021/07/15 12:13:08;;;;;;;2.67;1.10;;;;;;;;;;5053888;28;20027;-44
2021/07/15 12:15:35;;;;;;;2.03;1.10;;;;;;;;;;5053670;28;20097;-44
2021/07/15 12:18:12;;;;;;;5.43;1.70;;;;;;;;;;5052563;28;20064;-44
2021/07/15 12:20:43;;;;;;;5.60;1.60;;;;;;;;;;5053713;28;20020;-44
2021/07/15 12:23:14;;;;;;;4.63;1.20;;;;;;;;;;5051906;28;20404;-44
2021/07/15 12:25:40;;;;;;;3.50;1.00;;;;;;;;;;5053790;28;20021;-44
2021/07/15 12:28:08;;;;;;;2.60;0.95;;;;;;;;;;5053569;28;20037;-45
2021/07/15 12:30:39;;;;;;;7.80;1.27;;;;;;;;;;5052410;28;20043;-44
2021/07/15 12:33:05;;;;;;;5.15;1.75;;;;;;;;;;5053544;28;20025;-44
2021/07/15 12:35:33;;;;;;;5.20;1.65;;;;;;;;;;5053989;28;20029;-44
2021/07/15 12:38:14;;;;;;;4.50;1.20;;;;;;;;;;5053469;28;20092;-42
2021/07/15 12:40:40;;;;;;;2.90;1.17;;;;;;;;;;5053562;28;20021;-44
2021/07/15 12:43:15;;;;;;;5.85;1.45;;;;;;;;;;5053395;28;20104;-42
2021/07/15 12:45:46;;;;;;;4.40;1.10;;;;;;;;;;5053502;28;20498;-43
2021/07/15 12:48:13;;;;;;;3.05;1.25;;;;;;;;;;5053336;28;20045;-44
2021/07/15 12:50:39;;;;;;;10.40;1.83;;;;;;;;;;5053135;28;20029;-43
2021/07/15 12:53:10;;;;;;;8.85;2.13;;;;;;;;;;5052772;28;20033;-42
2021/07/15 12:55:36;;;;;;;29.65;15.57;;;;;;;;;;5050476;28;20102;-42
2021/07/15 12:58:02;;;;;;;19.67;11.13;;;;;;;;;;5052546;28;20452;-43
2021/07/15 13:00:33;;;;;;;95.68;85.45;;;;;;;;;;5052749;28;20021;-42
2021/07/15 13:03:00;;;;;;;96.82;76.82;;;;;;;;;;5052899;28;20055;-43
2021/07/15 13:05:26;;;;;;;20.42;13.30;;;;;;;;;;5052544;28;20017;-44
2021/07/15 13:07:52;;;;;;;8.82;6.50;;;;;;;;;;5052603;28;20473;-45
2021/07/15 13:10:35;;;;;;;29.70;20.35;;;;;;;;;;5052642;28;20059;-44
2021/07/15 13:15:53;;;;;;;12.45;9.48;;;;;;;;;;5051762;28;20107;-43
2021/07/15 13:18:23;;;;;;;11.15;5.75;;;;;;;;;;5025280;28;20042;-43
2021/07/15 13:20:49;;;;;;;35.60;23.58;;;;;;;;;;5021130;28;20064;-43
2021/07/15 13:23:15;;;;;;;16.75;11.93;;;;;;;;;;5022491;28;20030;-42
2021/07/15 13:25:59;;;;;;;14.52;9.23;;;;;;;;;;5021102;28;20026;-42
2021/07/15 13:28:31;;;;;;;20.60;12.73;;;;;;;;;;5021108;28;20044;-43
2021/07/15 13:30:57;;;;;;;7.88;2.97;;;;;;;;;;5020638;28;20076;-43
2021/07/15 13:33:25;;;;;;;23.20;15.98;;;;;;;;;;5022395;28;20033;-42
2021/07/15 13:35:52;;;;;;;12.45;8.30;;;;;;;;;;5020770;28;20722;-42
2021/07/15 13:38:19;;;;;;;10.32;3.05;;;;;;;;;;5020740;28;20075;-42
2021/07/15 13:40:46;;;;;;;8.23;4.35;;;;;;;;;;5020354;28;20025;-46
2021/07/15 13:43:26;;;;;;;4.95;2.50;;;;;;;;;;5020674;28;20025;-47
2021/07/15 13:45:53;;;;;;;6.20;1.70;;;;;;;;;;5023455;28;20136;-44
2021/07/15 13:48:20;;;;;;;7.43;1.80;;;;;;;;;;5021941;28;20041;-43
2021/07/15 13:50:48;;;;;;;16.38;9.45;;;;;;;;;;5022000;28;20029;-42
2021/07/15 13:53:15;;;;;;;11.55;5.00;;;;;;;;;;5024315;28;20417;-42
2021/07/15 13:55:42;;;;;;;28.67;16.38;;;;;;;;;;5024243;28;20021;-42
2021/07/15 13:58:12;;;;;;;15.93;10.98;;;;;;;;;;5024839;28;20496;-43
2021/07/15 14:00:38;;;;;;;8.13;4.75;;;;;;;;;;5024651;28;20029;-42
2021/07/15 14:03:05;;;;;;;9.23;5.50;;;;;;;;;;5024120;28;20021;-42
2021/07/15 14:05:38;;;;;;;6.22;3.42;;;;;;;;;;5024324;28;20331;-42
2021/07/15 14:08:06;;;;;;;8.90;3.28;;;;;;;;;;5025841;28;20025;-43
2021/07/15 14:10:33;;;;;;;8.95;3.05;;;;;;;;;;5023863;28;20021;-42
2021/07/15 14:12:59;;;;;;;5.15;2.75;;;;;;;;;;5023755;28;20473;-42
2021/07/15 14:15:29;;;;;;;5.95;2.88;;;;;;;;;;5024799;28;20539;-42
2021/07/15 14:18:01;;;;;;;12.52;9.52;;;;;;;;;;5025174;28;20099;-42
2021/07/15 14:20:28;;;;;;;15.63;9.27;;;;;;;;;;5024128;28;20029;-42
2021/07/15 14:22:54;;;;;;;108.65;75.40;;;;;;;;;;5023969;28;20358;-42
2021/07/15 14:25:20;;;;;;;34.97;24.85;;;;;;;;;;5024024;28;20412;-43
2021/07/15 14:27:48;;;;;;;36.90;24.27;;;;;;;;;;5023540;28;20022;-43
2021/07/15 14:30:20;;;;;;;28.88;20.58;;;;;;;;;;5023543;28;20031;-42
2021/07/15 14:32:46;;;;;;;20.13;10.95;;;;;;;;;;5023863;28;20036;-43
2021/07/15 14:35:12;;;;;;;41.75;26.15;;;;;;;;;;5023636;28;20025;-46
2021/07/15 14:37:39;;;;;;;14.13;8.23;;;;;;;;;;5023844;28;20013;-41
2021/07/15 14:40:06;;;;;;;29.40;17.73;;;;;;;;;;5027388;28;20453;-42
2021/07/15 14:42:32;;;;;;;168.80;148.05;;;;;;;;;;5028878;28;20087;-42